createdAt,value
2023-01-29T00:00:27.198Z,13.47
2023-01-29T00:03:16.809Z,15.13
2023-01-29T00:05:45.800Z,11.43
2023-01-29T00:08:14.896Z,14.33
2023-01-29T00:10:44.386Z,14.87
2023-01-29T00:13:13.375Z,12.47
2023-01-29T00:15:42.694Z,11.83
2023-01-29T00:18:11.680Z,13.17
2023-01-29T00:20:44.038Z,12.00
2023-01-29T00:23:12.995Z,13.53
2023-01-29T00:25:42.039Z,11.43
2023-01-29T00:28:11.855Z,13.00
2023-01-29T00:30:41.451Z,12.73
2023-01-29T00:33:11.500Z,11.17
2023-01-29T00:35:41.683Z,10.23
2023-01-29T00:38:11.027Z,8.73
2023-01-29T00:40:59.033Z,8.40
2023-01-29T00:43:46.561Z,8.50
2023-01-29T00:46:15.530Z,8.30
2023-01-29T00:48:44.446Z,8.50
2023-01-29T00:51:13.426Z,8.50
2023-01-29T00:53:42.457Z,11.33
2023-01-29T00:56:11.389Z,15.67
2023-01-29T00:58:40.430Z,11.20
2023-01-29T01:01:10.160Z,10.67
2023-01-29T01:03:41.747Z,11.20
2023-01-29T01:06:11.818Z,11.33
2023-01-29T01:08:59.465Z,8.37
2023-01-29T01:11:29.029Z,13.63
2023-01-29T01:14:01.699Z,10.43
2023-01-29T01:16:32.918Z,10.95
2023-01-29T01:19:02.845Z,9.67
2023-01-29T01:21:34.941Z,9.53
2023-01-29T01:24:05.393Z,9.20
2023-01-29T01:26:34.599Z,10.90
2023-01-29T01:29:04.899Z,10.03
2023-01-29T01:31:34.233Z,9.40
2023-01-29T01:34:05.106Z,9.80
2023-01-29T01:36:35.006Z,9.40
2023-01-29T01:39:06.936Z,8.70
2023-01-29T01:41:36.331Z,9.20
2023-01-29T01:44:08.025Z,13.43
2023-01-29T01:46:38.387Z,9.23
2023-01-29T01:49:16.323Z,10.93
2023-01-29T01:51:49.534Z,9.97
2023-01-29T01:54:24.936Z,11.40
2023-01-29T01:57:04.611Z,9.75
2023-01-29T01:59:34.417Z,10.93
2023-01-29T02:02:24.814Z,10.83
2023-01-29T02:05:12.842Z,10.10
2023-01-29T02:08:04.270Z,10.95
2023-01-29T02:10:40.427Z,10.97
2023-01-29T02:13:09.803Z,12.70
2023-01-29T02:15:46.301Z,12.83
2023-01-29T02:18:17.236Z,11.80
2023-01-29T02:21:06.916Z,14.33
2023-01-29T02:24:11.455Z,13.80
2023-01-29T02:26:59.784Z,12.55
2023-01-29T02:29:39.487Z,13.47
2023-01-29T02:32:22.934Z,14.33
2023-01-29T02:35:25.166Z,14.90
2023-01-29T02:38:01.991Z,14.17
2023-01-29T02:40:38.147Z,13.83
2023-01-29T02:43:24.859Z,11.10
2023-01-29T02:46:06.399Z,12.90
2023-01-29T02:48:44.386Z,15.57
2023-01-29T02:51:20.445Z,12.00
2023-01-29T02:53:58.027Z,14.13
2023-01-29T02:56:36.786Z,15.40
2023-01-29T02:59:13.241Z,13.03
2023-01-29T03:01:48.488Z,15.47
2023-01-29T03:04:32.069Z,12.87
2023-01-29T03:07:05.585Z,16.47
2023-01-29T03:09:38.915Z,15.08
2023-01-29T03:12:28.102Z,13.90
2023-01-29T03:15:13.947Z,13.67
2023-01-29T03:17:52.464Z,12.37
2023-01-29T03:20:31.714Z,14.10
2023-01-29T03:23:06.599Z,11.93
2023-01-29T03:25:57.524Z,13.17
2023-01-29T03:28:51.927Z,12.97
2023-01-29T03:31:41.047Z,12.67
2023-01-29T03:34:25.055Z,14.43
2023-01-29T03:37:02.103Z,13.60
2023-01-29T03:39:34.575Z,15.67
2023-01-29T03:42:12.900Z,21.03
2023-01-29T03:44:53.886Z,13.33
2023-01-29T03:47:40.267Z,12.63
2023-01-29T03:50:20.315Z,11.73
2023-01-29T03:52:59.803Z,13.67
2023-01-29T03:55:38.284Z,12.37
2023-01-29T03:58:21.521Z,11.67
2023-01-29T04:00:56.235Z,11.30
2023-01-29T04:03:34.438Z,12.80
2023-01-29T04:06:11.592Z,12.17
2023-01-29T04:08:59.821Z,13.83
2023-01-29T04:11:31.563Z,12.97
2023-01-29T04:14:01.569Z,16.15
2023-01-29T04:16:37.083Z,12.60
2023-01-29T04:19:25.062Z,12.57
2023-01-29T04:22:05.314Z,15.63
2023-01-29T04:24:35.948Z,13.63
2023-01-29T04:27:21.497Z,13.20
2023-01-29T04:30:07.366Z,9.87
2023-01-29T04:32:51.236Z,12.70
2023-01-29T04:35:31.993Z,14.20
2023-01-29T04:38:12.450Z,12.00
2023-01-29T04:40:52.417Z,13.53
2023-01-29T04:43:30.138Z,12.37
2023-01-29T04:46:19.733Z,12.13
2023-01-29T04:49:02.729Z,12.40
2023-01-29T04:51:41.915Z,11.70
2023-01-29T04:54:18.476Z,12.37
2023-01-29T04:56:55.887Z,15.10
2023-01-29T04:59:32.935Z,10.83
2023-01-29T05:02:03.923Z,13.60
2023-01-29T05:04:36.071Z,13.70
2023-01-29T05:07:08.660Z,13.73
2023-01-29T05:09:42.402Z,13.17
2023-01-29T05:12:14.638Z,16.77
2023-01-29T05:14:46.844Z,14.73
2023-01-29T05:17:18.939Z,13.73
2023-01-29T05:19:49.157Z,11.43
2023-01-29T05:22:22.556Z,11.33
2023-01-29T05:24:54.823Z,12.33
2023-01-29T05:27:55.138Z,13.63
2023-01-29T05:30:28.067Z,15.00
2023-01-29T05:32:57.709Z,16.03
2023-01-29T05:35:28.692Z,12.80
2023-01-29T05:37:59.950Z,14.47
2023-01-29T05:40:29.479Z,12.07
2023-01-29T05:42:59.389Z,16.13
2023-01-29T05:45:29.390Z,15.47
2023-01-29T05:47:59.409Z,16.90
2023-01-29T05:50:29.047Z,13.57
2023-01-29T05:53:00.146Z,15.63
2023-01-29T05:55:30.341Z,14.87
2023-01-29T05:58:00.566Z,14.75
2023-01-29T06:00:31.858Z,15.83
2023-01-29T06:03:01.070Z,15.47
2023-01-29T06:05:30.305Z,15.73
2023-01-29T06:08:01.630Z,16.27
2023-01-29T06:10:31.035Z,15.43
2023-01-29T06:13:00.643Z,15.60
2023-01-29T06:15:30.808Z,13.87
2023-01-29T06:18:00.809Z,13.97
2023-01-29T06:20:30.274Z,17.03
2023-01-29T06:23:02.455Z,14.17
2023-01-29T06:25:31.942Z,17.63
2023-01-29T06:28:01.074Z,15.83
2023-01-29T06:30:31.499Z,18.17
2023-01-29T06:33:02.304Z,15.07
2023-01-29T06:35:31.676Z,14.93
2023-01-29T06:38:01.065Z,15.67
2023-01-29T06:40:30.519Z,16.43
2023-01-29T06:43:01.817Z,14.40
2023-01-29T06:45:31.754Z,18.13
2023-01-29T06:48:01.765Z,18.40
2023-01-29T06:50:31.145Z,21.27
2023-01-29T06:53:01.335Z,17.67
2023-01-29T06:55:31.399Z,16.13
2023-01-29T06:58:04.845Z,18.17
2023-01-29T07:00:34.953Z,17.90
2023-01-29T07:03:04.411Z,15.00
2023-01-29T07:05:33.486Z,17.77
2023-01-29T07:08:02.844Z,17.67
2023-01-29T07:10:32.475Z,18.90
2023-01-29T07:13:01.718Z,17.03
2023-01-29T07:15:35.914Z,19.03
2023-01-29T07:18:11.755Z,14.33
2023-01-29T07:20:43.456Z,18.57
2023-01-29T07:23:13.923Z,14.53
2023-01-29T07:25:46.833Z,14.97
2023-01-29T07:28:18.090Z,13.98
2023-01-29T07:30:48.002Z,16.33
2023-01-29T07:33:19.710Z,16.40
2023-01-29T07:35:48.925Z,15.63
2023-01-29T07:38:17.972Z,18.63
2023-01-29T07:40:48.450Z,18.70
2023-01-29T07:43:17.452Z,17.43
2023-01-29T07:45:46.826Z,21.57
2023-01-29T07:48:24.597Z,13.10
2023-01-29T07:50:57.087Z,16.93
2023-01-29T07:53:27.918Z,16.55
2023-01-29T07:55:57.980Z,16.90
2023-01-29T07:58:27.609Z,15.90
2023-01-29T08:00:59.672Z,13.07
2023-01-29T08:03:29.055Z,15.07
2023-01-29T08:06:04.118Z,14.47
2023-01-29T08:08:33.096Z,17.67
2023-01-29T08:11:05.151Z,15.33
2023-01-29T08:13:37.170Z,18.10
2023-01-29T08:16:07.800Z,16.47
2023-01-29T08:18:38.291Z,16.17
2023-01-29T08:21:07.278Z,23.50
2023-01-29T08:23:36.339Z,15.90
2023-01-29T08:26:05.830Z,18.83
2023-01-29T08:28:34.796Z,18.27
2023-01-29T08:31:03.806Z,28.00
2023-01-29T08:33:39.180Z,30.30
2023-01-29T08:36:10.450Z,19.33
2023-01-29T08:38:39.452Z,15.77
2023-01-29T08:41:09.560Z,15.40
2023-01-29T08:43:39.278Z,20.67
2023-01-29T08:46:09.676Z,15.60
2023-01-29T08:48:38.718Z,15.27
2023-01-29T08:51:08.957Z,20.20
2023-01-29T08:53:38.298Z,19.35
2023-01-29T08:56:08.682Z,20.77
2023-01-29T08:58:37.550Z,19.27
2023-01-29T09:01:12.116Z,17.67
2023-01-29T09:03:43.235Z,23.97
2023-01-29T09:06:14.479Z,20.80
2023-01-29T09:08:43.416Z,23.40
2023-01-29T09:11:12.442Z,20.00
2023-01-29T09:13:41.376Z,20.43
2023-01-29T09:16:10.957Z,16.87
2023-01-29T09:18:39.958Z,14.77
2023-01-29T09:21:08.947Z,15.83
2023-01-29T09:23:37.954Z,15.55
2023-01-29T09:26:08.265Z,18.47
2023-01-29T09:28:39.514Z,17.40
2023-01-29T09:31:08.775Z,17.53
2023-01-29T09:33:37.884Z,17.50
2023-01-29T09:36:08.837Z,16.37
2023-01-29T09:38:37.752Z,29.13
2023-01-29T09:41:22.714Z,17.37
2023-01-29T09:43:58.885Z,21.83
2023-01-29T09:46:36.835Z,22.13
2023-01-29T09:49:12.712Z,26.73
2023-01-29T09:51:44.883Z,19.27
2023-01-29T09:54:19.402Z,19.77
2023-01-29T09:56:50.814Z,17.90
2023-01-29T09:59:25.066Z,18.80
2023-01-29T10:04:50.186Z,16.77
2023-01-29T10:07:45.549Z,21.13
2023-01-29T10:10:25.896Z,18.03
2023-01-29T10:13:02.741Z,16.67
2023-01-29T10:15:55.566Z,14.80
2023-01-29T10:18:53.326Z,19.57
2023-01-29T10:21:41.398Z,19.20
2023-01-29T10:24:21.679Z,17.17
2023-01-29T10:26:52.206Z,17.97
2023-01-29T10:29:21.892Z,15.97
2023-01-29T10:31:55.525Z,19.87
2023-01-29T10:34:34.113Z,15.25
2023-01-29T10:37:15.000Z,16.23
2023-01-29T10:39:44.217Z,15.83
2023-01-29T10:42:38.686Z,19.27
2023-01-29T10:45:22.668Z,19.20
2023-01-29T10:48:09.559Z,12.43
2023-01-29T10:50:50.898Z,13.32
2023-01-29T10:53:45.770Z,17.47
2023-01-29T10:58:59.900Z,15.30
2023-01-29T11:01:30.166Z,15.97
2023-01-29T11:04:03.319Z,18.73
2023-01-29T11:06:34.971Z,17.23
2023-01-29T11:09:11.218Z,22.20
2023-01-29T11:11:45.489Z,15.67
2023-01-29T11:14:21.878Z,17.83
2023-01-29T11:16:51.782Z,19.90
2023-01-29T11:19:38.548Z,21.87
2023-01-29T11:22:15.096Z,15.53
2023-01-29T11:24:44.863Z,18.77
2023-01-29T11:27:33.325Z,19.53
2023-01-29T11:30:03.214Z,18.57
2023-01-29T11:32:35.368Z,15.40
2023-01-29T11:35:19.813Z,18.50
2023-01-29T11:37:49.604Z,16.00
2023-01-29T11:40:39.517Z,17.57
2023-01-29T11:43:34.453Z,15.33
2023-01-29T11:46:12.304Z,18.87
2023-01-29T11:48:47.503Z,19.23
2023-01-29T11:51:32.508Z,14.57
2023-01-29T11:54:07.572Z,19.10
2023-01-29T11:56:44.145Z,14.83
2023-01-29T11:59:29.725Z,16.43
2023-01-29T12:02:30.280Z,19.13
2023-01-29T12:05:05.294Z,16.30
2023-01-29T12:07:40.999Z,21.40
2023-01-29T12:10:32.610Z,33.03
2023-01-29T12:13:29.947Z,121.43
2023-01-29T12:16:19.812Z,25.50
2023-01-29T12:18:55.534Z,23.83
2023-01-29T12:21:37.161Z,15.77
2023-01-29T12:24:26.696Z,20.67
2023-01-29T12:27:02.583Z,17.90
2023-01-29T12:29:43.132Z,18.20
2023-01-29T12:32:26.394Z,16.73
2023-01-29T12:35:01.953Z,18.63
2023-01-29T12:37:50.161Z,19.77
2023-01-29T12:40:25.919Z,15.97
2023-01-29T12:43:03.579Z,16.20
2023-01-29T12:45:34.659Z,15.57
2023-01-29T12:48:13.036Z,18.10
2023-01-29T12:50:42.137Z,19.73
2023-01-29T12:53:34.114Z,17.67
2023-01-29T12:56:14.902Z,18.50
2023-01-29T12:58:48.430Z,18.13
2023-01-29T13:01:30.754Z,21.45
2023-01-29T13:04:07.399Z,20.20
2023-01-29T13:06:51.438Z,19.93
2023-01-29T13:09:50.782Z,19.40
2023-01-29T13:12:30.145Z,20.70
2023-01-29T13:15:09.800Z,25.33
2023-01-29T13:17:50.330Z,23.33
2023-01-29T13:20:30.490Z,23.07
2023-01-29T13:23:15.685Z,25.13
2023-01-29T13:25:45.234Z,22.60
2023-01-29T13:28:24.907Z,19.97
2023-01-29T13:31:13.505Z,18.03
2023-01-29T13:33:52.397Z,21.97
2023-01-29T13:36:28.620Z,25.13
2023-01-29T13:39:04.982Z,50.93
2023-01-29T13:41:43.022Z,45.57
2023-01-29T13:44:27.779Z,122.30
2023-01-29T13:47:00.774Z,79.20
2023-01-29T13:49:42.867Z,82.70
2023-01-29T13:52:34.127Z,44.70
2023-01-29T13:55:06.852Z,28.77
2023-01-29T13:57:51.120Z,25.90
2023-01-29T14:00:59.859Z,25.43
2023-01-29T14:04:09.942Z,27.07
2023-01-29T14:07:00.359Z,25.13
2023-01-29T14:10:04.937Z,22.63
2023-01-29T14:12:45.362Z,26.27
2023-01-29T14:22:28.195Z,23.00
2023-01-29T14:25:01.772Z,25.70
2023-01-29T14:27:34.207Z,25.20
2023-01-29T14:30:09.267Z,28.13
2023-01-29T14:32:41.531Z,30.23
2023-01-29T14:35:20.404Z,29.27
2023-01-29T14:37:53.194Z,24.20
2023-01-29T14:40:29.560Z,24.80
2023-01-29T14:43:03.479Z,48.13
2023-01-29T14:45:36.098Z,39.20
2023-01-29T14:48:59.339Z,31.77
2023-01-29T14:51:43.033Z,27.17
2023-01-29T14:54:41.686Z,29.33
2023-01-29T14:57:17.811Z,29.30
2023-01-29T15:00:11.559Z,31.10
2023-01-29T15:02:59.862Z,33.87
2023-01-29T15:05:43.398Z,29.00
2023-01-29T15:08:23.246Z,33.27
2023-01-29T15:11:11.859Z,33.87
2023-01-29T15:13:50.676Z,38.20
2023-01-29T15:16:26.090Z,34.47
2023-01-29T15:19:04.621Z,37.43
2023-01-29T15:21:33.828Z,42.97
2023-01-29T15:24:13.448Z,48.27
2023-01-29T15:26:43.725Z,38.00
2023-01-29T15:29:25.057Z,28.17
2023-01-29T15:31:55.177Z,28.27
2023-01-29T15:34:25.691Z,31.57
2023-01-29T15:36:54.639Z,32.97
2023-01-29T15:39:27.430Z,37.23
2023-01-29T15:42:22.908Z,52.70
2023-01-29T15:44:54.399Z,39.20
2023-01-29T15:47:28.692Z,34.03
2023-01-29T15:49:58.034Z,35.57
2023-01-29T15:52:32.577Z,32.45
2023-01-29T15:55:06.766Z,31.73
2023-01-29T15:57:40.726Z,34.73
2023-01-29T16:00:23.394Z,35.47
2023-01-29T16:02:55.285Z,35.17
2023-01-29T16:05:29.502Z,38.77
2023-01-29T16:07:59.686Z,35.30
2023-01-29T16:10:31.131Z,39.90
2023-01-29T16:13:01.037Z,42.93
2023-01-29T16:15:32.824Z,39.57
2023-01-29T16:18:04.427Z,44.40
2023-01-29T16:20:39.891Z,47.03
2023-01-29T16:23:19.135Z,38.13
2023-01-29T16:25:49.618Z,37.37
2023-01-29T16:28:20.341Z,34.83
2023-01-29T16:30:57.840Z,39.00
2023-01-29T16:33:35.013Z,40.10
2023-01-29T16:36:11.476Z,41.33
2023-01-29T16:38:43.885Z,42.00
2023-01-29T16:41:30.934Z,38.50
2023-01-29T16:44:03.309Z,41.70
2023-01-29T16:46:39.078Z,39.83
2023-01-29T16:49:44.004Z,49.53
2023-01-29T16:52:20.425Z,43.45
2023-01-29T16:54:50.196Z,45.77
2023-01-29T16:57:27.950Z,39.77
2023-01-29T17:00:06.648Z,39.10
2023-01-29T17:02:39.130Z,49.07
2023-01-29T17:05:19.981Z,41.13
2023-01-29T17:07:57.056Z,43.20
2023-01-29T17:10:36.039Z,50.30
2023-01-29T17:13:08.520Z,48.23
2023-01-29T17:15:47.992Z,45.17
2023-01-29T17:18:41.046Z,54.17
2023-01-29T17:21:28.311Z,47.75
2023-01-29T17:24:13.047Z,64.93
2023-01-29T17:26:43.786Z,58.47
2023-01-29T17:29:18.418Z,44.03
2023-01-29T17:31:48.010Z,72.87
2023-01-29T17:34:18.328Z,45.40
2023-01-29T17:36:47.216Z,43.40
2023-01-29T17:39:18.660Z,45.53
2023-01-29T17:41:50.161Z,42.60
2023-01-29T17:44:19.492Z,41.00
2023-01-29T17:46:48.966Z,41.40
2023-01-29T17:49:26.255Z,39.70
2023-01-29T17:51:56.676Z,44.10
2023-01-29T17:54:26.926Z,43.60
2023-01-29T17:56:55.889Z,43.53
2023-01-29T17:59:30.053Z,49.63
2023-01-29T18:04:29.168Z,40.87
2023-01-29T18:06:58.883Z,43.27
2023-01-29T18:09:28.333Z,47.03
2023-01-29T18:12:00.316Z,57.10
2023-01-29T18:14:29.960Z,47.53
2023-01-29T18:16:59.429Z,47.83
2023-01-29T18:19:30.591Z,46.37
2023-01-29T18:22:00.767Z,47.07
2023-01-29T18:24:31.027Z,45.50
2023-01-29T18:27:03.215Z,43.33
2023-01-29T18:29:34.555Z,41.83
2023-01-29T18:32:06.945Z,45.33
2023-01-29T18:34:43.579Z,40.80
2023-01-29T18:40:29.572Z,45.30
2023-01-29T18:43:11.379Z,57.00
2023-01-29T18:45:57.288Z,53.97
2023-01-29T18:48:41.743Z,50.77
2023-01-29T18:51:16.999Z,53.00
2023-01-29T18:56:28.653Z,44.30
2023-01-29T18:59:01.483Z,45.33
2023-01-29T19:01:47.557Z,53.33
2023-01-29T19:04:31.352Z,62.57
2023-01-29T19:07:05.301Z,54.20
2023-01-29T19:09:44.156Z,58.80
2023-01-29T19:12:30.162Z,46.37
2023-01-29T19:15:21.772Z,46.90
2023-01-29T19:18:00.249Z,46.23
2023-01-29T19:20:38.599Z,52.83
2023-01-29T19:23:13.748Z,50.50
2023-01-29T19:26:00.759Z,48.73
2023-01-29T19:28:38.994Z,44.20
2023-01-29T19:31:15.400Z,47.63
2023-01-29T19:33:52.993Z,47.33
2023-01-29T19:36:31.714Z,44.13
2023-01-29T19:39:05.089Z,43.57
2023-01-29T19:41:48.981Z,42.23
2023-01-29T19:44:32.006Z,40.40
2023-01-29T19:47:05.541Z,44.03
2023-01-29T19:52:50.227Z,43.50
2023-01-29T19:55:33.324Z,42.03
2023-01-29T19:58:07.497Z,48.43
2023-01-29T20:01:00.675Z,53.33
2023-01-29T20:03:33.349Z,54.98
2023-01-29T20:06:21.939Z,47.40
2023-01-29T20:09:10.303Z,43.50
2023-01-29T20:11:40.459Z,42.97
2023-01-29T20:14:19.195Z,45.53
2023-01-29T20:17:08.970Z,42.37
2023-01-29T20:22:37.842Z,40.90
2023-01-29T20:25:17.315Z,40.97
2023-01-29T20:27:57.696Z,41.17
2023-01-29T20:30:31.662Z,41.40
2023-01-29T20:33:16.810Z,41.87
2023-01-29T20:35:58.146Z,44.87
2023-01-29T20:38:34.261Z,47.80
2023-01-29T20:41:07.488Z,43.33
2023-01-29T20:43:41.840Z,41.77
2023-01-29T20:46:11.870Z,45.67
2023-01-29T20:48:44.190Z,37.23
2023-01-29T20:51:17.725Z,40.73
2023-01-29T20:53:55.079Z,47.00
2023-01-29T20:56:36.301Z,54.30
2023-01-29T20:59:13.183Z,43.70
2023-01-29T21:01:44.005Z,44.03
2023-01-29T21:04:33.932Z,43.30
2023-01-29T21:07:04.135Z,43.23
2023-01-29T21:09:38.095Z,42.90
2023-01-29T21:12:11.626Z,40.85
2023-01-29T21:14:43.403Z,41.33
2023-01-29T21:17:22.692Z,38.37
2023-01-29T21:20:03.823Z,43.00
2023-01-29T21:25:06.393Z,44.63
2023-01-29T21:27:36.254Z,43.65
2023-01-29T21:30:13.920Z,38.07
2023-01-29T21:32:45.658Z,42.03
2023-01-29T21:35:18.209Z,39.10
2023-01-29T21:37:52.177Z,47.80
2023-01-29T21:40:30.022Z,39.90
2023-01-29T21:43:11.516Z,38.57
2023-01-29T21:45:41.716Z,41.43
2023-01-29T21:48:13.730Z,42.50
2023-01-29T21:50:49.439Z,39.43
2023-01-29T21:53:22.881Z,37.47
2023-01-29T21:58:39.897Z,41.23
2023-01-29T22:01:18.420Z,37.77
2023-01-29T22:04:03.369Z,44.23
2023-01-29T22:06:34.005Z,42.17
2023-01-29T22:09:04.305Z,38.13
2023-01-29T22:11:41.355Z,43.47
2023-01-29T22:14:12.970Z,40.23
2023-01-29T22:16:45.178Z,41.67
2023-01-29T22:19:18.076Z,42.03
2023-01-29T22:21:51.144Z,42.93
2023-01-29T22:24:23.618Z,45.20
2023-01-29T22:26:58.781Z,39.93
2023-01-29T22:32:17.451Z,43.93
2023-01-29T22:34:57.756Z,41.73
2023-01-29T22:37:42.005Z,40.63
2023-01-29T22:40:20.106Z,42.57
2023-01-29T22:42:58.744Z,45.50
2023-01-29T22:45:46.863Z,43.57
2023-01-29T22:48:18.166Z,40.90
2023-01-29T22:51:08.645Z,39.30
2023-01-29T22:53:48.916Z,43.27
2023-01-29T22:56:36.513Z,39.50
2023-01-29T22:59:11.920Z,45.10
2023-01-29T23:01:41.074Z,37.20
2023-01-29T23:04:10.119Z,41.83
2023-01-29T23:06:39.166Z,40.33
2023-01-29T23:09:08.801Z,38.00
2023-01-29T23:11:37.951Z,39.17
2023-01-29T23:14:06.846Z,35.43
2023-01-29T23:16:35.795Z,42.60
2023-01-29T23:19:05.665Z,40.23
2023-01-29T23:21:34.826Z,37.60
2023-01-29T23:24:05.367Z,37.40
2023-01-29T23:26:53.088Z,38.65
2023-01-29T23:29:22.397Z,35.83
2023-01-29T23:31:51.884Z,35.63
2023-01-29T23:34:21.043Z,35.90
2023-01-29T23:36:50.416Z,35.27
2023-01-29T23:39:19.987Z,34.30
2023-01-29T23:41:48.999Z,33.20
2023-01-29T23:44:18.265Z,30.70
2023-01-29T23:46:47.518Z,37.30
2023-01-29T23:49:16.388Z,34.13
2023-01-29T23:51:46.922Z,30.93
2023-01-29T23:54:16.117Z,35.80
2023-01-29T23:56:45.879Z,30.40
2023-01-29T23:59:15.405Z,29.87
